メインページ
METAR-TAF:

METAR-TAF

空港 :

サンティアゴ, チリ

アルトゥーロ・メリノ・ベニテス国際空港

緯度: 33-23S, 経度: 070-47W, 海抜: 475m

現時点の気象観測

当レポートは17分前の06:00(UTC)に作成
西の風 2kt
気温 14°C
湿度 72%
気圧 1014 hPa
視程10km以上
1,500メートル以下は雲なし、積乱雲なし

METAR: SCEL 280600Z 27002KT CAVOK 14/09 Q1014 NOSIG

時間: 03:17 (06:17 UTC)

予報

当レポートは2時間7分前の04:10(UTC)に作成
予報は28日の 06時(UTC)から 29日の 06時(UTC)まで有効
南/南東の風 6kt
視程10km以上
1,500メートル以下は雲なし、積乱雲なし
28日の 09時(UTC)から 28日の 14時(UTC)まで一時的に
変向風 2kt
視程: 7000m
28日の 15時(UTC)から 28日の 17時(UTC)まで徐々に
の風 8kt
28日の 19時(UTC)から 28日の 21時(UTC)まで徐々に
南/南西の風 12kt
29日の 01時(UTC)から 29日の 03時(UTC)まで徐々に
南/南東の風 6kt

TAF: SCEL 280410Z 2806/2906 16006KT CAVOK TX28/2819Z TN11/2810Z TEMPO 2809/2814 VRB02KT 7000 NSC BECMG 2815/2817 18008KT BECMG 2819/2821 21012KT BECMG 2901/2903 16006KT

4,000以上の空港の気象観測と天気予報(METAR報とTAF報)

利用可能な観測所は地図上に黄色い丸と赤い丸で示す。

丸の上にカーソルを重ねると観測所名を参照できる。

次にクリックすると気象観測と天気予報を参照できる。

マップの切り替え:黒色「×」印の緑ボタンをクリックして拡大、「-」印の緑ボタンをクリックして縮小、緑色の三角印をクリックして隣りの地図に切り替え


METAR-TAF: